Search for airport 
image banner adimage banner adimage banner ad
image banner ad

9CL6 - Valley Children's Hospital

Located in Madera, United States

ICAO - 9CL6, IATA -

Data provided by Airmate  

General information

Coordinates: N36°52'60" W119°48'6"
Elevation is 376 feet MSL.
Magnetic variation is 13° East
View others Airports in California

Operational data

Special qualification required
Current time UTC:
Current local time:
Weather at : KFAT - Fresno Yosemite Intl ( 14 km )
METAR: KFAT 210953Z 33006KT 10SM CLR 25/11 A2979 RMK AO2 SLP082 T02500106 $
TAF: KFAT 210520Z 2106/2206 30007KT P6SM SKC
View NOTAMs / SUP AIP / TFR affecting this airport [VIEW]
Communications frequencies: [VIEW]

Runways:

Airport contact information

Address: Madera United States

Satellite view of 9CL6